createdAt,value
2023-03-27T00:00:10.827Z,97.46
2023-03-27T00:02:40.293Z,98.17
2023-03-27T00:05:08.575Z,96.39
2023-03-27T00:07:37.230Z,90.78
2023-03-27T00:10:05.381Z,99.28
2023-03-27T00:12:33.572Z,100.00
2023-03-27T00:15:02.682Z,100.00
2023-03-27T00:17:30.647Z,100.00
2023-03-27T00:19:59.907Z,100.00
2023-03-27T00:22:30.035Z,100.00
2023-03-27T00:24:57.988Z,100.00
2023-03-27T00:27:26.893Z,100.00
2023-03-27T00:29:55.038Z,100.00
2023-03-27T00:32:22.950Z,100.00
2023-03-27T00:34:50.855Z,100.00
2023-03-27T00:37:20.149Z,100.00
2023-03-27T00:39:50.119Z,100.00
2023-03-27T00:42:22.767Z,100.00
2023-03-27T00:44:51.537Z,100.00
2023-03-27T00:47:23.364Z,100.00
2023-03-27T00:49:52.633Z,100.00
2023-03-27T00:52:22.427Z,100.00
2023-03-27T00:54:50.446Z,100.00
2023-03-27T00:57:22.141Z,100.00
2023-03-27T00:59:53.820Z,100.00
2023-03-27T01:02:23.566Z,100.00
2023-03-27T01:04:51.677Z,100.00
2023-03-27T01:07:22.679Z,100.00
2023-03-27T01:09:50.713Z,100.00
2023-03-27T01:12:31.430Z,100.00
2023-03-27T01:15:16.468Z,100.00
2023-03-27T01:17:58.200Z,100.00
2023-03-27T01:20:48.977Z,100.00
2023-03-27T01:24:00.970Z,100.00
2023-03-27T01:26:57.690Z,100.00
2023-03-27T01:29:34.036Z,100.00
2023-03-27T01:32:23.968Z,100.00
2023-03-27T01:35:23.019Z,100.00
2023-03-27T01:38:05.772Z,100.00
2023-03-27T01:40:37.740Z,100.00
2023-03-27T01:43:09.129Z,100.00
2023-03-27T01:45:43.848Z,100.00
2023-03-27T01:48:17.439Z,100.00
2023-03-27T01:50:49.472Z,100.00
2023-03-27T01:53:24.132Z,100.00
2023-03-27T01:55:58.331Z,100.00
2023-03-27T01:58:31.342Z,100.00
2023-03-27T02:01:02.476Z,100.00
2023-03-27T02:03:34.926Z,100.00
2023-03-27T02:06:07.804Z,100.00
2023-03-27T02:08:41.266Z,100.00
2023-03-27T02:11:10.848Z,100.00
2023-03-27T02:13:43.630Z,100.00
2023-03-27T02:16:17.737Z,100.00
2023-03-27T02:18:56.728Z,100.00
2023-03-27T02:21:24.912Z,100.00
2023-03-27T02:23:54.109Z,100.00
2023-03-27T02:26:23.876Z,100.00
2023-03-27T02:29:19.203Z,100.00
2023-03-27T02:32:00.310Z,100.00
2023-03-27T02:34:57.181Z,100.00
2023-03-27T02:37:32.655Z,100.00
2023-03-27T02:40:13.749Z,100.00
2023-03-27T02:42:53.061Z,100.00
2023-03-27T02:45:27.477Z,100.00
2023-03-27T02:48:00.422Z,100.00
2023-03-27T02:50:35.468Z,100.00
2023-03-27T02:53:06.126Z,100.00
2023-03-27T02:55:39.947Z,100.00
2023-03-27T02:58:12.597Z,100.00
2023-03-27T03:00:48.802Z,100.00
2023-03-27T03:03:21.433Z,100.00
2023-03-27T03:05:50.872Z,100.00
2023-03-27T03:08:21.672Z,100.00
2023-03-27T03:10:50.056Z,100.00
2023-03-27T03:13:19.422Z,100.00
2023-03-27T03:15:48.896Z,100.00
2023-03-27T03:18:18.474Z,100.00
2023-03-27T03:20:46.405Z,100.00
2023-03-27T03:23:14.346Z,100.00
2023-03-27T03:25:44.099Z,100.00
2023-03-27T03:28:13.068Z,100.00
2023-03-27T03:30:45.579Z,100.00
2023-03-27T03:33:14.287Z,100.00
2023-03-27T03:35:43.197Z,100.00
2023-03-27T03:38:11.218Z,100.00
2023-03-27T03:40:39.691Z,100.00
2023-03-27T03:43:07.650Z,100.00
2023-03-27T03:45:35.521Z,100.00
2023-03-27T03:48:05.046Z,100.00
2023-03-27T03:50:33.043Z,100.00
2023-03-27T03:53:00.995Z,100.00
2023-03-27T03:55:29.608Z,100.00
2023-03-27T03:57:58.589Z,100.00
2023-03-27T04:00:26.894Z,100.00
2023-03-27T04:02:55.299Z,100.00
2023-03-27T04:05:25.112Z,100.00
2023-03-27T04:07:53.062Z,100.00
2023-03-27T04:10:21.004Z,100.00
2023-03-27T04:12:49.586Z,100.00
2023-03-27T04:15:18.755Z,100.00
2023-03-27T04:17:48.556Z,100.00
2023-03-27T04:20:17.256Z,100.00
2023-03-27T04:22:48.639Z,100.00
2023-03-27T04:25:18.980Z,100.00
2023-03-27T04:27:46.933Z,100.00
2023-03-27T04:30:15.923Z,100.00
2023-03-27T04:32:43.932Z,100.00
2023-03-27T04:35:12.300Z,100.00
2023-03-27T04:37:41.919Z,100.00
2023-03-27T04:40:14.405Z,100.00
2023-03-27T04:42:44.127Z,100.00
2023-03-27T04:45:14.296Z,100.00
2023-03-27T04:47:42.797Z,100.00
2023-03-27T04:50:13.009Z,100.00
2023-03-27T04:52:41.000Z,100.00
2023-03-27T04:55:11.693Z,100.00
2023-03-27T04:57:41.822Z,100.00
2023-03-27T05:00:18.908Z,100.00
2023-03-27T05:02:47.930Z,100.00
2023-03-27T05:05:17.116Z,100.00
2023-03-27T05:07:46.713Z,100.00
2023-03-27T05:10:15.983Z,100.00
2023-03-27T05:12:46.933Z,100.00
2023-03-27T05:15:17.554Z,100.00
2023-03-27T05:17:47.193Z,100.00
2023-03-27T05:20:17.706Z,100.00
2023-03-27T05:22:46.211Z,100.00
2023-03-27T05:25:14.752Z,100.00
2023-03-27T05:27:47.251Z,100.00
2023-03-27T05:30:16.106Z,100.00
2023-03-27T05:32:48.389Z,100.00
2023-03-27T05:35:18.170Z,100.00
2023-03-27T05:37:48.826Z,100.00
2023-03-27T05:40:21.058Z,100.00
2023-03-27T05:42:53.481Z,100.00
2023-03-27T05:45:23.221Z,100.00
2023-03-27T05:47:53.495Z,100.00
2023-03-27T05:50:25.418Z,99.67
2023-03-27T05:52:56.955Z,94.61
2023-03-27T05:55:27.439Z,93.87
2023-03-27T05:57:57.492Z,91.29
2023-03-27T06:00:27.486Z,89.56
2023-03-27T06:02:57.012Z,88.01
2023-03-27T06:05:26.755Z,89.09
2023-03-27T06:07:55.943Z,85.47
2023-03-27T06:10:23.911Z,82.01
2023-03-27T06:13:01.643Z,83.15
2023-03-27T06:15:29.900Z,80.30
2023-03-27T06:17:58.274Z,79.80
2023-03-27T06:20:26.263Z,78.93
2023-03-27T06:22:56.717Z,78.00
2023-03-27T06:25:25.982Z,76.22
2023-03-27T06:27:55.088Z,75.88
2023-03-27T06:30:26.930Z,75.23
2023-03-27T06:32:58.599Z,76.08
2023-03-27T06:35:28.295Z,74.67
2023-03-27T06:37:59.085Z,74.23
2023-03-27T06:40:29.304Z,74.82
2023-03-27T06:42:59.276Z,73.13
2023-03-27T06:45:31.475Z,74.39
2023-03-27T06:48:12.164Z,76.39
2023-03-27T06:50:49.958Z,76.62
2023-03-27T06:55:49.566Z,76.40
2023-03-27T06:58:19.163Z,76.44
2023-03-27T07:00:50.338Z,75.77
2023-03-27T07:03:19.791Z,74.61
2023-03-27T07:05:49.053Z,74.37
2023-03-27T07:08:23.426Z,74.84
2023-03-27T07:11:08.013Z,75.18
2023-03-27T07:13:38.800Z,73.40
2023-03-27T07:16:09.869Z,73.67
2023-03-27T07:18:39.724Z,72.74
2023-03-27T07:21:08.619Z,72.99
2023-03-27T07:23:37.840Z,70.83
2023-03-27T07:26:06.363Z,69.79
2023-03-27T07:28:34.265Z,70.31
2023-03-27T07:31:16.739Z,66.96
2023-03-27T07:33:58.154Z,64.70
2023-03-27T07:36:26.550Z,65.56
2023-03-27T07:38:54.438Z,66.07
2023-03-27T07:41:23.001Z,64.34
2023-03-27T07:43:50.968Z,65.81
2023-03-27T07:46:18.930Z,66.32
2023-03-27T07:48:47.050Z,67.67
2023-03-27T07:51:17.098Z,68.39
2023-03-27T07:53:45.513Z,68.47
2023-03-27T07:56:13.975Z,68.07
2023-03-27T07:58:43.025Z,67.66
2023-03-27T08:01:11.677Z,69.09
2023-03-27T08:03:41.777Z,66.20
2023-03-27T08:06:10.573Z,64.91
2023-03-27T08:08:39.864Z,64.10
2023-03-27T08:11:16.101Z,62.75
2023-03-27T08:13:51.471Z,64.71
2023-03-27T08:16:20.932Z,65.24
2023-03-27T08:18:49.792Z,65.77
2023-03-27T08:21:17.938Z,65.32
2023-03-27T08:23:47.792Z,67.19
2023-03-27T08:26:16.078Z,68.93
2023-03-27T08:28:44.077Z,69.23
2023-03-27T08:31:14.823Z,69.92
2023-03-27T08:33:43.929Z,69.81
2023-03-27T08:36:14.443Z,69.37
2023-03-27T08:38:44.205Z,70.58
2023-03-27T08:41:38.767Z,71.65
2023-03-27T08:44:11.959Z,72.18
2023-03-27T08:46:44.373Z,73.19
2023-03-27T08:49:18.465Z,75.44
2023-03-27T08:51:50.578Z,72.47
2023-03-27T08:54:21.679Z,71.75
2023-03-27T08:56:52.574Z,74.70
2023-03-27T08:59:23.320Z,76.06
2023-03-27T09:01:59.163Z,75.87
2023-03-27T09:04:42.207Z,73.57
2023-03-27T09:07:15.186Z,74.00
2023-03-27T09:09:56.212Z,68.57
2023-03-27T09:12:39.969Z,66.21
2023-03-27T09:15:14.361Z,66.77
2023-03-27T09:17:47.378Z,65.07
2023-03-27T09:20:19.196Z,63.26
2023-03-27T09:22:52.879Z,63.77
2023-03-27T09:25:25.544Z,62.51
2023-03-27T09:27:55.130Z,64.25
2023-03-27T09:30:27.491Z,68.41
2023-03-27T09:32:59.201Z,69.68
2023-03-27T09:35:27.439Z,70.88
2023-03-27T09:38:00.200Z,71.87
2023-03-27T09:40:33.914Z,72.76
2023-03-27T09:43:14.799Z,71.40
2023-03-27T09:45:46.087Z,69.37
2023-03-27T09:48:21.824Z,70.26
2023-03-27T09:50:49.891Z,69.83
2023-03-27T09:53:21.041Z,69.70
2023-03-27T09:55:53.022Z,69.05
2023-03-27T09:58:40.889Z,69.27
2023-03-27T10:01:13.485Z,69.06
2023-03-27T10:03:45.872Z,68.74
2023-03-27T10:06:17.245Z,68.40
2023-03-27T10:08:50.016Z,68.31
2023-03-27T10:11:20.475Z,70.06
2023-03-27T10:13:52.185Z,71.61
2023-03-27T10:16:22.517Z,70.12
2023-03-27T10:18:53.651Z,74.94
2023-03-27T10:21:28.075Z,75.23
2023-03-27T10:24:02.851Z,72.25
2023-03-27T10:26:37.020Z,81.68
2023-03-27T10:29:23.059Z,89.66
2023-03-27T10:31:54.278Z,86.21
2023-03-27T10:34:36.542Z,86.64
2023-03-27T10:37:19.394Z,85.15
2023-03-27T10:39:48.030Z,82.95
2023-03-27T10:42:18.093Z,80.58
2023-03-27T10:44:49.508Z,77.19
2023-03-27T10:47:20.942Z,76.10
2023-03-27T10:49:57.958Z,74.36
2023-03-27T10:52:34.983Z,72.60
2023-03-27T10:55:15.734Z,72.24
2023-03-27T10:57:48.154Z,72.51
2023-03-27T11:00:32.660Z,69.41
2023-03-27T11:03:09.597Z,68.78
2023-03-27T11:05:41.418Z,72.90
2023-03-27T11:08:14.916Z,74.05
2023-03-27T11:10:44.721Z,75.67
2023-03-27T11:13:18.219Z,78.84
2023-03-27T11:15:54.240Z,96.53
2023-03-27T11:18:26.580Z,100.00
2023-03-27T11:20:59.746Z,100.00
2023-03-27T11:23:35.073Z,100.00
2023-03-27T11:26:06.093Z,100.00
2023-03-27T11:28:42.995Z,100.00
2023-03-27T11:31:24.528Z,100.00
2023-03-27T11:33:56.425Z,100.00
2023-03-27T11:36:37.719Z,100.00
2023-03-27T11:39:24.006Z,100.00
2023-03-27T11:41:57.302Z,100.00
2023-03-27T11:44:26.539Z,100.00
2023-03-27T11:47:20.398Z,100.00
2023-03-27T11:49:59.951Z,100.00
2023-03-27T11:52:41.093Z,100.00
2023-03-27T11:55:21.966Z,100.00
2023-03-27T11:58:07.161Z,100.00
2023-03-27T12:00:39.555Z,100.00
2023-03-27T12:03:33.519Z,100.00
2023-03-27T12:06:14.864Z,100.00
2023-03-27T12:09:07.364Z,100.00
2023-03-27T12:11:43.096Z,100.00
2023-03-27T12:14:46.668Z,100.00
2023-03-27T12:17:43.631Z,100.00
2023-03-27T12:20:51.908Z,100.00
2023-03-27T12:23:57.709Z,100.00
2023-03-27T12:26:56.470Z,100.00
2023-03-27T12:29:49.190Z,100.00
2023-03-27T12:32:31.106Z,100.00
2023-03-27T12:35:03.805Z,100.00
2023-03-27T12:37:40.170Z,100.00
2023-03-27T12:40:26.052Z,100.00
2023-03-27T12:42:56.239Z,100.00
2023-03-27T12:45:27.529Z,100.00
2023-03-27T12:48:18.437Z,100.00
2023-03-27T12:50:55.615Z,100.00
2023-03-27T12:53:55.427Z,100.00
2023-03-27T12:56:32.233Z,100.00
2023-03-27T12:59:01.411Z,100.00
2023-03-27T13:02:02.038Z,100.00
2023-03-27T13:04:58.304Z,100.00
2023-03-27T13:07:33.636Z,100.00
2023-03-27T13:10:20.535Z,100.00
2023-03-27T13:13:17.201Z,100.00
2023-03-27T13:16:06.044Z,100.00
2023-03-27T13:19:03.788Z,100.00
2023-03-27T13:21:40.227Z,100.00
2023-03-27T13:24:36.811Z,100.00
2023-03-27T13:27:24.640Z,100.00
2023-03-27T13:29:53.936Z,100.00
2023-03-27T13:32:34.869Z,100.00
2023-03-27T13:35:27.193Z,100.00
2023-03-27T13:38:00.795Z,100.00
2023-03-27T13:40:33.136Z,100.00
2023-03-27T13:43:18.558Z,100.00
2023-03-27T13:45:50.072Z,100.00
2023-03-27T13:48:50.669Z,100.00
2023-03-27T13:51:33.474Z,100.00
2023-03-27T13:54:42.588Z,100.00
2023-03-27T13:57:34.394Z,100.00
2023-03-27T14:00:42.769Z,100.00
2023-03-27T14:03:38.723Z,100.00
2023-03-27T14:06:38.508Z,100.00
2023-03-27T14:09:17.283Z,100.00
2023-03-27T14:11:58.275Z,100.00
2023-03-27T14:14:52.379Z,100.00
2023-03-27T14:17:49.698Z,100.00
2023-03-27T14:20:24.794Z,100.00
2023-03-27T14:22:58.024Z,100.00
2023-03-27T14:25:34.198Z,100.00
2023-03-27T14:28:02.638Z,100.00
2023-03-27T14:30:34.743Z,100.00
2023-03-27T14:33:08.821Z,100.00
2023-03-27T14:35:39.154Z,100.00
2023-03-27T14:38:09.082Z,100.00
2023-03-27T14:40:42.586Z,100.00
2023-03-27T14:43:13.399Z,100.00
2023-03-27T14:45:42.092Z,100.00
2023-03-27T14:48:21.186Z,100.00
2023-03-27T14:50:50.362Z,100.00
2023-03-27T14:53:26.101Z,100.00
2023-03-27T14:55:55.527Z,100.00
2023-03-27T14:58:25.819Z,100.00
2023-03-27T15:00:58.068Z,100.00
2023-03-27T15:03:30.206Z,100.00
2023-03-27T15:06:02.011Z,100.00
2023-03-27T15:08:36.912Z,100.00
2023-03-27T15:11:12.194Z,100.00
2023-03-27T15:13:42.536Z,100.00
2023-03-27T15:16:16.073Z,100.00
2023-03-27T15:19:04.936Z,100.00
2023-03-27T15:21:39.211Z,100.00
2023-03-27T15:24:11.402Z,100.00
2023-03-27T15:26:39.543Z,100.00
2023-03-27T15:29:13.911Z,100.00
2023-03-27T15:31:44.382Z,100.00
2023-03-27T15:34:23.338Z,100.00
2023-03-27T15:36:58.499Z,100.00
2023-03-27T15:39:27.338Z,100.00
2023-03-27T15:42:04.169Z,100.00
2023-03-27T15:44:33.966Z,100.00
2023-03-27T15:47:02.105Z,100.00
2023-03-27T15:49:33.613Z,100.00
2023-03-27T15:52:22.171Z,100.00
2023-03-27T15:54:55.854Z,100.00
2023-03-27T15:57:25.413Z,100.00
2023-03-27T15:59:53.852Z,100.00
2023-03-27T16:02:25.050Z,100.00
2023-03-27T16:04:57.184Z,100.00
2023-03-27T16:07:30.188Z,100.00
2023-03-27T16:10:02.519Z,100.00
2023-03-27T16:12:34.118Z,100.00
2023-03-27T16:15:08.133Z,100.00
2023-03-27T16:17:45.923Z,100.00
2023-03-27T16:20:37.429Z,100.00
2023-03-27T16:23:06.276Z,100.00
2023-03-27T16:25:34.494Z,100.00
2023-03-27T16:28:03.079Z,100.00
2023-03-27T16:30:34.355Z,100.00
2023-03-27T16:33:02.929Z,100.00
2023-03-27T16:35:32.597Z,100.00
2023-03-27T16:38:02.034Z,100.00
2023-03-27T16:40:29.935Z,100.00
2023-03-27T16:42:57.849Z,100.00
2023-03-27T16:45:26.581Z,100.00
2023-03-27T16:47:54.891Z,100.00
2023-03-27T16:50:25.054Z,100.00
2023-03-27T16:52:53.332Z,100.00
2023-03-27T16:55:22.985Z,100.00
2023-03-27T16:57:52.485Z,100.00
2023-03-27T17:00:21.316Z,100.00
2023-03-27T17:02:49.282Z,100.00
2023-03-27T17:05:17.606Z,100.00
2023-03-27T17:07:46.952Z,100.00
2023-03-27T17:10:15.098Z,100.00
2023-03-27T17:12:44.993Z,100.00
2023-03-27T17:15:16.260Z,100.00
2023-03-27T17:17:46.045Z,100.00
2023-03-27T17:20:14.800Z,100.00
2023-03-27T17:22:43.094Z,100.00
2023-03-27T17:25:11.905Z,100.00
2023-03-27T17:27:40.448Z,100.00
2023-03-27T17:30:11.146Z,100.00
2023-03-27T17:32:39.777Z,100.00
2023-03-27T17:35:08.339Z,100.00
2023-03-27T17:37:37.114Z,100.00
2023-03-27T17:40:09.556Z,100.00
2023-03-27T17:42:38.229Z,100.00
2023-03-27T17:45:07.408Z,100.00
2023-03-27T17:47:37.012Z,100.00
2023-03-27T17:50:05.718Z,100.00
2023-03-27T17:52:34.875Z,100.00
2023-03-27T17:55:02.921Z,100.00
2023-03-27T17:57:31.135Z,100.00
2023-03-27T17:59:59.218Z,100.00
2023-03-27T18:02:27.863Z,100.00
2023-03-27T18:04:57.291Z,100.00
2023-03-27T18:07:26.134Z,100.00
2023-03-27T18:09:54.918Z,100.00
2023-03-27T18:12:22.833Z,100.00
2023-03-27T18:14:50.990Z,100.00
2023-03-27T18:17:21.092Z,100.00
2023-03-27T18:19:49.335Z,100.00
2023-03-27T18:22:18.853Z,100.00
2023-03-27T18:24:47.404Z,100.00
2023-03-27T18:27:16.552Z,100.00
2023-03-27T18:29:44.509Z,100.00
2023-03-27T18:32:13.723Z,100.00
2023-03-27T18:34:41.716Z,100.00
2023-03-27T18:37:09.659Z,100.00
2023-03-27T18:39:39.029Z,100.00
2023-03-27T18:42:08.657Z,100.00
2023-03-27T18:44:39.167Z,100.00
2023-03-27T18:47:08.931Z,100.00
2023-03-27T18:49:37.334Z,100.00
2023-03-27T18:52:06.266Z,100.00
2023-03-27T18:54:34.268Z,100.00
2023-03-27T18:57:03.888Z,100.00
2023-03-27T18:59:31.998Z,100.00
2023-03-27T19:01:59.987Z,100.00
2023-03-27T19:04:27.945Z,100.00
2023-03-27T19:07:08.365Z,100.00
2023-03-27T19:09:41.358Z,100.00
2023-03-27T19:12:13.174Z,100.00
2023-03-27T19:14:43.987Z,100.00
2023-03-27T19:17:14.937Z,100.00
2023-03-27T19:19:45.837Z,100.00
2023-03-27T19:22:14.590Z,100.00
2023-03-27T19:24:43.175Z,100.00
2023-03-27T19:27:23.758Z,100.00
2023-03-27T19:29:52.773Z,100.00
2023-03-27T19:32:21.154Z,100.00
2023-03-27T19:34:49.340Z,100.00
2023-03-27T19:37:25.787Z,100.00
2023-03-27T19:39:54.629Z,100.00
2023-03-27T19:42:42.511Z,100.00
2023-03-27T19:45:16.393Z,100.00
2023-03-27T19:47:56.436Z,100.00
2023-03-27T19:50:25.596Z,100.00
2023-03-27T19:53:07.429Z,100.00
2023-03-27T19:55:37.401Z,100.00
2023-03-27T19:58:07.615Z,100.00
2023-03-27T20:00:38.823Z,100.00
2023-03-27T20:03:10.664Z,100.00
2023-03-27T20:05:40.196Z,100.00
2023-03-27T20:08:08.234Z,100.00
2023-03-27T20:10:36.103Z,100.00
2023-03-27T20:13:04.349Z,100.00
2023-03-27T20:15:33.805Z,100.00
2023-03-27T20:18:02.704Z,100.00
2023-03-27T20:20:31.678Z,100.00
2023-03-27T20:23:01.671Z,100.00
2023-03-27T20:25:33.696Z,100.00
2023-03-27T20:28:01.967Z,100.00
2023-03-27T20:30:30.623Z,100.00
2023-03-27T20:33:03.157Z,100.00
2023-03-27T20:38:53.141Z,100.00
2023-03-27T20:41:21.885Z,100.00
2023-03-27T20:43:57.755Z,100.00
2023-03-27T20:46:30.754Z,100.00
2023-03-27T20:49:00.170Z,100.00
2023-03-27T20:51:28.096Z,100.00
2023-03-27T20:53:58.218Z,100.00
2023-03-27T20:56:27.100Z,100.00
2023-03-27T20:59:14.528Z,100.00
2023-03-27T21:01:44.213Z,100.00
2023-03-27T21:04:16.068Z,100.00
2023-03-27T21:06:44.911Z,100.00
2023-03-27T21:09:14.203Z,100.00
2023-03-27T21:11:42.425Z,100.00
2023-03-27T21:14:10.346Z,100.00
2023-03-27T21:16:38.722Z,100.00
2023-03-27T21:19:06.815Z,100.00
2023-03-27T21:21:36.305Z,100.00
2023-03-27T21:24:04.380Z,100.00
2023-03-27T21:26:32.334Z,100.00
2023-03-27T21:29:00.510Z,100.00
2023-03-27T21:31:28.656Z,100.00
2023-03-27T21:33:56.670Z,100.00
2023-03-27T21:36:26.508Z,100.00
2023-03-27T21:38:57.337Z,100.00
2023-03-27T21:41:26.618Z,100.00
2023-03-27T21:43:54.637Z,100.00
2023-03-27T21:46:22.710Z,100.00
2023-03-27T21:51:46.943Z,100.00
2023-03-27T21:54:16.178Z,100.00
2023-03-27T21:56:44.177Z,100.00
2023-03-27T21:59:12.157Z,100.00
2023-03-27T22:01:40.107Z,100.00
2023-03-27T22:04:08.349Z,100.00
2023-03-27T22:06:36.704Z,100.00
2023-03-27T22:09:04.907Z,100.00
2023-03-27T22:11:34.221Z,100.00
2023-03-27T22:14:02.124Z,100.00
2023-03-27T22:16:30.459Z,100.00
2023-03-27T22:18:58.379Z,100.00
2023-03-27T22:21:29.166Z,100.00
2023-03-27T22:23:58.738Z,100.00
2023-03-27T22:26:28.960Z,100.00
2023-03-27T22:28:58.257Z,100.00
2023-03-27T22:31:27.230Z,100.00
2023-03-27T22:33:55.219Z,100.00
2023-03-27T22:36:23.476Z,100.00
2023-03-27T22:38:51.454Z,100.00
2023-03-27T22:41:19.752Z,100.00
2023-03-27T22:43:49.645Z,100.00
2023-03-27T22:46:22.283Z,100.00
2023-03-27T22:48:55.269Z,100.00
2023-03-27T22:51:23.773Z,100.00
2023-03-27T22:53:52.330Z,100.00
2023-03-27T22:56:20.761Z,100.00
2023-03-27T22:58:48.703Z,100.00
2023-03-27T23:01:16.703Z,100.00
2023-03-27T23:03:46.581Z,100.00
2023-03-27T23:06:18.857Z,100.00
2023-03-27T23:08:47.149Z,100.00
2023-03-27T23:11:15.205Z,100.00
2023-03-27T23:17:37.332Z,100.00
2023-03-27T23:20:07.451Z,100.00
2023-03-27T23:22:35.380Z,100.00
2023-03-27T23:25:03.398Z,100.00
2023-03-27T23:27:31.322Z,100.00
2023-03-27T23:29:59.366Z,100.00
2023-03-27T23:32:29.827Z,100.00
2023-03-27T23:34:57.923Z,100.00
2023-03-27T23:37:29.573Z,100.00
2023-03-27T23:39:57.543Z,100.00
2023-03-27T23:42:25.502Z,100.00
2023-03-27T23:44:53.402Z,100.00
2023-03-27T23:47:21.402Z,100.00
2023-03-27T23:49:49.482Z,100.00
2023-03-27T23:52:19.455Z,100.00
2023-03-27T23:54:48.817Z,100.00
2023-03-27T23:57:16.787Z,100.00
2023-03-27T23:59:44.721Z,100.00
